»·PEaware :: N973LW KBFL-KMHV

N973LW :: KBFL-KMHV

FLIGHT INFORMATION

Flight Status: Arrived
Operator: Privately registered:
United States
More flights under this callsign
Pilot: Anonymous 26214 (26214)
Aircraft: CESSNA 172 SKYHAWK
(C172)
More flights by this aircraft type
Origin: KBFL Meadows
United States
Destination: KMHV Mojave
United States
More flights between these airports :: More routes between these airports
Route: +
File this flight plan on PilotEdge
Remarks:
Altitude:
(Current/Filed)
0ft
Speed:
(Current/Filed)
0kts
Departed: 01-Nov-19 04:54 PM
Arrived: 01-Nov-19 05:34 PM
Distance/Time
Traveled:
50nm/0:39
Distance/Time
To Go:
Arrived

Flight Plot

Page will automatically refresh every two minutes.


Map Options




Map Legend


Flown Route
Filed Route
Departure Airport
Arrival Airport
Navaid (VOR, NDB)
Fix

Horizontal Profiles

Position Reports

Time Latitude Longitude Heading Altitude Ground
Speed
01-Nov-19 16:45 35.435118 -119.053868 226 498ft 0kts
01-Nov-19 16:46 35.435110 -119.053878 226 497ft 2kts
01-Nov-19 16:47 35.431776 -119.051481 136 493ft 21kts
01-Nov-19 16:48 35.427676 -119.046525 136 486ft 13kts
01-Nov-19 16:49 35.425855 -119.044666 197 480ft 0kts
01-Nov-19 16:50 35.425855 -119.044666 197 480ft 0kts
01-Nov-19 16:51 35.425855 -119.044666 197 480ft 0kts
01-Nov-19 16:52 35.425850 -119.044668 198 480ft 0kts
01-Nov-19 16:53 35.431315 -119.053019 316 738ft 61kts
01-Nov-19 16:54 35.443051 -119.069389 313 1359ft 68kts
01-Nov-19 16:55 35.450506 -119.061359 127 1638ft 94kts
01-Nov-19 16:56 35.431867 -119.037467 134 2064ft 97kts
01-Nov-19 16:57 35.419152 -119.010228 109 2667ft 85kts
01-Nov-19 16:58 35.403795 -118.986545 135 3442ft 92kts
01-Nov-19 16:59 35.386269 -118.964266 129 4375ft 89kts
01-Nov-19 17:00 35.379225 -118.935629 98 5229ft 87kts
01-Nov-19 17:01 35.374440 -118.905197 120 5593ft 102kts
01-Nov-19 17:02 35.355385 -118.875599 139 5515ft 121kts
01-Nov-19 17:03 35.329967 -118.852599 134 5407ft 110kts
01-Nov-19 17:04 35.314246 -118.821392 104 5514ft 113kts
01-Nov-19 17:05 35.303550 -118.784726 115 5517ft 116kts
01-Nov-19 17:06 35.286374 -118.751128 119 5454ft 120kts
01-Nov-19 17:07 35.271071 -118.716327 120 5533ft 112kts
01-Nov-19 17:08 35.259977 -118.681355 121 5637ft 110kts
01-Nov-19 17:09 35.244131 -118.648039 120 5620ft 115kts
01-Nov-19 17:10 35.227739 -118.617432 122 5824ft 110kts
01-Nov-19 17:11 35.210377 -118.588165 123 5625ft 110kts
01-Nov-19 17:12 35.193524 -118.557007 122 5783ft 108kts
01-Nov-19 17:13 35.174759 -118.528199 133 6152ft 110kts
01-Nov-19 17:14 35.153331 -118.500346 120 6394ft 115kts
01-Nov-19 17:15 35.141667 -118.466156 102 6920ft 94kts
01-Nov-19 17:16 35.135160 -118.434791 105 7420ft 97kts
01-Nov-19 17:17 35.128810 -118.401196 101 7532ft 104kts
01-Nov-19 17:18 35.119261 -118.368672 113 7465ft 97kts
01-Nov-19 17:19 35.108749 -118.337642 117 7206ft 104kts
01-Nov-19 17:21 35.094587 -118.306597 114 6642ft 108kts
01-Nov-19 17:22 35.082633 -118.271994 107 5905ft 110kts
01-Nov-19 17:23 35.071204 -118.236459 99 4845ft 120kts
01-Nov-19 17:24 35.065337 -118.197508 89 3890ft 118kts
01-Nov-19 17:25 35.045078 -118.193276 250 3637ft 114kts
01-Nov-19 17:26 35.065247 -118.196366 33 3790ft 112kts
01-Nov-19 17:27 35.073588 -118.208923 196 3681ft 112kts
01-Nov-19 17:28 35.066008 -118.180363 41 3496ft 107kts
01-Nov-19 17:29 35.074441 -118.195524 174 3788ft 111kts
01-Nov-19 17:30 35.068578 -118.159636 87 3481ft 122kts
01-Nov-19 17:31 35.058510 -118.136376 213 3285ft 90kts
01-Nov-19 17:32 35.053815 -118.113074 21 3564ft 113kts
01-Nov-19 17:33 35.059270 -118.138266 266 2851ft 89kts
01-Nov-19 17:34 35.058647 -118.148433 219 2745ft 0kts
01-Nov-19 17:35 35.058611 -118.148477 226 2745ft 3kts
01-Nov-19 17:36 35.058446 -118.148702 229 2745ft 0kts
01-Nov-19 17:37 35.057595 -118.152180 269 2751ft 19kts
01-Nov-19 17:38 35.056190 -118.151771 334 2746ft 0kts

Navigation Log

Ident Type
Flight plan parsing failed, navigation log unavailable